Time;durP1;ratioP1;P1;durP2;ratioP2;P2;SDS_P1;SDS_P2;PMS_P1;PMS_P2;Temp;Humidity;BMP_temperature;BMP_pressure;BME280_temperature;BME280_humidity;BME280_pressure;Samples;Min_cycle;Max_cycle;Signal;HPM_P1;HPM_P2
2022/02/04 00:08:02;;;;;;;18.40;8.33;;;6.50;91.60;;;;;;5053332;28;20206;-69
2022/02/04 00:23:21;;;;;;;21.20;9.17;;;6.30;91.50;;;;;;5042723;28;20212;-68
2022/02/04 00:33:46;;;;;;;19.67;9.67;;;6.10;92.20;;;;;;5045092;28;20211;-69
2022/02/04 00:38:46;;;;;;;19.03;9.53;;;6.10;92.40;;;;;;5045791;28;20676;-68
2022/02/04 00:41:17;;;;;;;20.17;9.80;;;6.10;92.40;;;;;;5040396;28;20250;-68
2022/02/04 00:43:47;;;;;;;20.23;10.53;;;6.10;92.60;;;;;;5046401;28;20204;-68
2022/02/04 00:46:19;;;;;;;14.83;8.77;;;6.10;92.90;;;;;;5052140;28;20211;-68
2022/02/04 00:49:16;;;;;;;19.07;9.67;;;6.10;93.20;;;;;;5050273;28;20525;-69
2022/02/04 00:54:21;;;;;;;14.03;8.20;;;6.10;93.30;;;;;;5045697;28;20205;-68
2022/02/04 01:26:57;;;;;;;17.30;8.80;;;6.20;93.80;;;;;;5045060;28;20217;-68
2022/02/04 01:29:28;;;;;;;16.13;8.13;;;6.20;93.80;;;;;;5043352;28;20220;-68
2022/02/04 01:31:55;;;;;;;20.00;9.27;;;6.20;93.70;;;;;;5044681;28;20206;-68
2022/02/04 01:34:22;;;;;;;20.60;8.63;;;6.30;93.80;;;;;;5049840;28;20283;-68
2022/02/04 01:36:49;;;;;;;14.03;7.37;;;6.30;93.80;;;;;;5044064;28;20201;-68
2022/02/04 01:39:16;;;;;;;18.10;8.10;;;6.30;93.70;;;;;;5042618;28;20229;-68
2022/02/04 01:41:43;;;;;;;17.83;8.43;;;6.20;93.60;;;;;;5041453;28;20666;-68
2022/02/04 01:44:29;;;;;;;17.73;8.97;;;6.20;93.60;;;;;;5041681;28;20203;-68
2022/02/04 01:46:56;;;;;;;23.30;9.33;;;6.20;93.60;;;;;;5045031;28;20207;-68
2022/02/04 01:49:24;;;;;;;21.13;8.53;;;6.20;93.70;;;;;;5042661;28;20206;-69
2022/02/04 01:51:51;;;;;;;18.70;8.67;;;6.10;93.70;;;;;;5041981;28;20274;-68
2022/02/04 01:54:18;;;;;;;12.07;7.33;;;6.10;93.60;;;;;;5041169;28;20596;-68
2022/02/04 01:56:46;;;;;;;14.73;7.77;;;6.00;93.40;;;;;;5042337;28;20582;-68
2022/02/04 01:59:13;;;;;;;14.83;7.73;;;6.00;93.30;;;;;;5042877;28;20217;-68
2022/02/04 02:01:40;;;;;;;17.80;9.23;;;6.00;93.10;;;;;;5040917;28;20234;-68
2022/02/04 02:04:11;;;;;;;15.90;7.30;;;5.90;93.00;;;;;;5040052;28;20213;-68
2022/02/04 02:06:52;;;;;;;11.73;7.03;;;5.90;92.90;;;;;;5039872;28;20202;-68
2022/02/04 02:09:22;;;;;;;20.23;7.63;;;5.90;92.60;;;;;;5045324;28;20201;-68
2022/02/04 02:11:54;;;;;;;16.53;8.80;;;5.80;92.40;;;;;;5053716;28;20670;-68
2022/02/04 02:14:22;;;;;;;16.33;8.80;;;5.80;92.20;;;;;;5042461;28;20213;-68
2022/02/04 02:33:01;;;;;;;20.27;8.23;;;5.70;92.30;;;;;;5042551;28;20196;-68
2022/02/04 02:33:52;;;;;;;16.33;8.20;;;5.40;92.20;;;;;;5043929;28;20204;-68
2022/02/04 02:46:55;;;;;;;17.30;8.93;;;5.50;92.40;;;;;;5038818;28;20276;-68
2022/02/04 02:50:18;;;;;;;18.77;8.90;;;5.40;92.30;;;;;;5052578;28;20212;-68
2022/02/04 02:52:45;;;;;;;18.90;9.40;;;5.40;92.30;;;;;;5043838;28;20217;-68
2022/02/04 02:58:01;;;;;;;15.37;8.83;;;5.30;92.50;;;;;;5039145;28;20201;-68
2022/02/04 03:03:04;;;;;;;17.50;7.87;;;5.30;92.50;;;;;;5039398;28;20699;-68
2022/02/04 03:05:31;;;;;;;15.20;9.13;;;5.20;92.40;;;;;;5043958;28;20199;-68
2022/02/04 03:07:58;;;;;;;19.70;10.13;;;5.20;92.20;;;;;;5041342;28;20390;-68
2022/02/04 03:10:25;;;;;;;14.80;9.83;;;5.10;92.00;;;;;;5038980;28;20216;-68
2022/02/04 03:12:53;;;;;;;11.90;9.20;;;5.10;92.00;;;;;;5040920;28;20275;-68
2022/02/04 03:15:21;;;;;;;12.87;9.33;;;5.00;92.00;;;;;;5047482;28;20203;-68
2022/02/04 03:17:57;;;;;;;18.43;9.40;;;5.00;91.90;;;;;;5043350;28;20224;-68
2022/02/04 03:20:25;;;;;;;15.33;9.97;;;4.90;92.00;;;;;;5042253;28;20215;-68
2022/02/04 03:22:53;;;;;;;13.77;9.97;;;4.90;92.00;;;;;;5043450;28;20241;-68
2022/02/04 03:25:24;;;;;;;17.37;10.53;;;4.90;92.10;;;;;;5045011;28;20273;-68
2022/02/04 03:27:56;;;;;;;17.83;9.20;;;4.90;92.20;;;;;;5046227;28;20205;-68
2022/02/04 03:30:28;;;;;;;16.23;10.20;;;5.00;92.40;;;;;;5045478;28;20545;-68
2022/02/04 03:33:00;;;;;;;17.60;10.40;;;5.00;92.30;;;;;;5040106;28;20551;-68
2022/02/04 03:35:27;;;;;;;21.03;9.47;;;5.00;92.50;;;;;;5041959;28;20669;-68
2022/02/04 03:37:56;;;;;;;19.07;9.60;;;5.00;92.60;;;;;;5050545;28;20274;-68
2022/02/04 03:40:24;;;;;;;15.90;9.87;;;5.00;92.70;;;;;;5044213;28;20599;-68
2022/02/04 03:42:52;;;;;;;15.00;9.60;;;5.00;92.60;;;;;;5047270;28;20270;-68
2022/02/04 03:45:21;;;;;;;15.80;9.43;;;5.00;92.50;;;;;;5050515;28;20212;-68
2022/02/04 03:47:48;;;;;;;16.40;9.53;;;5.00;92.30;;;;;;5045684;28;20197;-68
2022/02/04 03:50:16;;;;;;;16.47;10.07;;;5.00;92.30;;;;;;5053005;28;20192;-68
2022/02/04 03:52:43;;;;;;;21.87;10.57;;;5.00;92.40;;;;;;5053738;28;20625;-68
2022/02/04 03:55:11;;;;;;;21.73;10.67;;;5.00;92.30;;;;;;5047252;28;20208;-68
2022/02/04 03:57:39;;;;;;;18.63;10.67;;;4.90;92.20;;;;;;5045934;28;20197;-68
2022/02/04 04:00:12;;;;;;;19.43;10.97;;;4.90;92.40;;;;;;5055726;28;20264;-68
2022/02/04 04:02:42;;;;;;;19.87;11.10;;;4.90;92.60;;;;;;5045535;28;20213;-68
2022/02/04 04:05:11;;;;;;;20.93;9.73;;;4.90;92.80;;;;;;5045375;28;20208;-68
2022/02/04 04:07:44;;;;;;;18.93;10.10;;;5.00;93.00;;;;;;5046361;28;20200;-68
2022/02/04 04:10:16;;;;;;;17.77;10.07;;;5.10;93.10;;;;;;5062318;28;20226;-68
2022/02/04 04:12:43;;;;;;;13.93;9.80;;;5.10;93.20;;;;;;5044484;28;20212;-68
2022/02/04 04:15:11;;;;;;;19.83;10.30;;;5.20;93.30;;;;;;5047204;28;20255;-68
2022/02/04 04:17:43;;;;;;;15.03;10.40;;;5.30;93.30;;;;;;5049174;28;20201;-68
2022/02/04 04:20:17;;;;;;;17.43;10.20;;;5.30;93.20;;;;;;5051517;28;20224;-68
2022/02/04 04:22:45;;;;;;;19.80;10.53;;;5.30;93.10;;;;;;5046847;28;20696;-68
2022/02/04 04:25:14;;;;;;;20.17;10.87;;;5.30;93.10;;;;;;5054130;28;20302;-68
2022/02/04 04:27:42;;;;;;;19.10;10.73;;;5.40;93.10;;;;;;5045364;28;20215;-68
2022/02/04 04:30:11;;;;;;;21.03;10.60;;;5.40;93.10;;;;;;5035082;28;20231;-68
2022/02/04 04:32:39;;;;;;;20.97;10.60;;;5.40;93.10;;;;;;5050478;28;20633;-68
2022/02/04 04:35:11;;;;;;;18.53;10.07;;;5.50;93.20;;;;;;5043216;28;20652;-68
2022/02/04 04:37:53;;;;;;;24.23;10.30;;;5.50;93.50;;;;;;5059172;28;20209;-68
2022/02/04 04:43:10;;;;;;;17.73;9.73;;;5.60;93.20;;;;;;5060357;28;20244;-68
2022/02/04 05:29:15;;;;;;;25.23;11.30;;;6.10;93.30;;;;;;5053174;28;20229;-68
2022/02/04 05:31:43;;;;;;;21.97;11.20;;;6.10;93.30;;;;;;5045036;28;20210;-68
2022/02/04 05:34:11;;;;;;;22.27;11.63;;;6.20;93.40;;;;;;5040733;28;20232;-68
2022/02/04 05:36:42;;;;;;;19.07;11.70;;;6.20;93.40;;;;;;5042077;28;20576;-68
2022/02/04 05:39:11;;;;;;;17.23;9.97;;;6.20;93.40;;;;;;5044780;28;20205;-68
2022/02/04 05:41:42;;;;;;;18.20;10.27;;;6.20;93.40;;;;;;5042091;28;20224;-68
2022/02/04 05:44:12;;;;;;;21.17;11.73;;;6.20;93.40;;;;;;5039616;28;20622;-68
2022/02/04 05:46:50;;;;;;;14.47;10.67;;;6.30;93.40;;;;;;5051636;28;20196;-68
2022/02/04 05:49:20;;;;;;;22.47;12.13;;;6.30;93.40;;;;;;5044272;28;20205;-68
2022/02/04 05:54:42;;;;;;;17.83;11.43;;;6.30;93.30;;;;;;5043247;28;20621;-68
2022/02/04 06:02:54;;;;;;;17.37;10.60;;;6.30;93.40;;;;;;5051131;28;20241;-68
2022/02/04 06:05:04;;;;;;;26.17;12.93;;;6.30;93.40;;;;;;5046947;28;20225;-68
2022/02/04 06:08:02;;;;;;;20.20;11.97;;;6.30;93.40;;;;;;5040921;28;20205;-68
2022/02/04 06:10:51;;;;;;;20.53;13.30;;;6.30;93.40;;;;;;5042248;28;20225;-68
2022/02/04 06:24:07;;;;;;;20.00;12.83;;;6.40;93.40;;;;;;5044360;28;20206;-68
2022/02/04 06:26:34;;;;;;;28.10;13.73;;;6.40;93.30;;;;;;5050404;28;20216;-68
2022/02/04 06:29:04;;;;;;;27.83;14.67;;;6.40;93.30;;;;;;5037445;28;20202;-69
2022/02/04 06:31:31;;;;;;;20.83;13.70;;;6.40;93.30;;;;;;5049575;28;20257;-68
2022/02/04 06:33:59;;;;;;;23.53;13.77;;;6.40;93.40;;;;;;5040144;28;20247;-68
2022/02/04 06:36:26;;;;;;;18.87;12.43;;;6.40;93.40;;;;;;5041665;28;20202;-69
2022/02/04 06:38:53;;;;;;;20.10;12.97;;;6.30;93.50;;;;;;5039979;28;20687;-68
2022/02/04 06:41:20;;;;;;;21.10;13.47;;;6.40;93.50;;;;;;5039226;28;20689;-68
2022/02/04 06:43:47;;;;;;;26.83;12.77;;;6.40;93.60;;;;;;5044488;28;20199;-68
2022/02/04 06:46:14;;;;;;;20.27;13.13;;;6.40;93.60;;;;;;5041467;28;20203;-68
2022/02/04 06:48:41;;;;;;;24.47;13.80;;;6.40;93.60;;;;;;5039925;28;20545;-69
2022/02/04 06:51:08;;;;;;;16.73;12.53;;;6.50;93.60;;;;;;5039782;28;20202;-69
2022/02/04 06:53:35;;;;;;;18.80;12.13;;;6.50;93.50;;;;;;5050052;28;20210;-69
2022/02/04 06:56:03;;;;;;;19.70;12.40;;;6.50;93.50;;;;;;5043213;28;20214;-69
2022/02/04 06:58:30;;;;;;;21.13;12.50;;;6.50;93.50;;;;;;5044043;28;20206;-69
2022/02/04 07:00:57;;;;;;;20.07;11.73;;;6.50;93.50;;;;;;5044056;28;20206;-69
2022/02/04 07:03:24;;;;;;;17.53;12.33;;;6.50;93.40;;;;;;5044213;28;20219;-69
2022/02/04 07:05:55;;;;;;;19.00;11.63;;;6.60;93.40;;;;;;5046791;28;20210;-69
2022/02/04 07:16:54;;;;;;;28.77;14.63;;;6.60;93.50;;;;;;5048421;28;20224;-69
2022/02/04 07:22:07;;;;;;;33.07;16.13;;;6.60;93.60;;;;;;5043277;28;20271;-69
2022/02/04 07:24:34;;;;;;;24.27;13.37;;;6.60;93.60;;;;;;5044820;28;20210;-69
2022/02/04 07:27:01;;;;;;;27.47;14.73;;;6.70;93.60;;;;;;5042977;28;20218;-67
2022/02/04 07:29:29;;;;;;;40.17;16.13;;;6.70;93.70;;;;;;5049388;28;20205;-69
2022/02/04 07:31:57;;;;;;;25.10;14.70;;;6.80;93.70;;;;;;5042701;28;20217;-68
2022/02/04 07:34:41;;;;;;;28.43;15.20;;;6.80;93.60;;;;;;5046371;28;20606;-68
2022/02/04 07:42:39;;;;;;;25.00;15.10;;;6.90;93.60;;;;;;5042009;28;20226;-68
2022/02/04 07:45:06;;;;;;;24.63;15.13;;;7.00;93.60;;;;;;5041481;28;20203;-68
2022/02/04 07:47:33;;;;;;;21.27;12.87;;;7.00;93.50;;;;;;5044409;28;20206;-68
2022/02/04 07:50:01;;;;;;;18.70;13.70;;;7.00;93.80;;;;;;5042024;28;20218;-68
2022/02/04 07:52:28;;;;;;;22.23;13.37;;;7.10;93.50;;;;;;5045523;28;20213;-68
2022/02/04 07:54:56;;;;;;;24.20;14.97;;;7.10;93.40;;;;;;5042569;28;20231;-68
2022/02/04 07:57:23;;;;;;;23.20;14.13;;;7.10;93.40;;;;;;5043094;28;20229;-68
2022/02/04 07:59:50;;;;;;;21.53;12.87;;;7.20;93.40;;;;;;5045723;28;20243;-68
2022/02/04 08:02:17;;;;;;;23.60;14.50;;;7.20;93.40;;;;;;5047900;28;20298;-68
2022/02/04 08:04:46;;;;;;;25.17;15.27;;;7.20;93.40;;;;;;5043144;28;20207;-68
2022/02/04 08:07:16;;;;;;;26.50;15.50;;;7.30;93.50;;;;;;5046154;28;20209;-68
2022/02/04 08:10:07;;;;;;;25.87;15.03;;;7.40;93.40;;;;;;5048321;28;20639;-68
2022/02/04 08:18:21;;;;;;;27.73;16.40;;;7.50;93.20;;;;;;5040086;28;20207;-67
2022/02/04 08:54:51;;;;;;;21.80;14.17;;;8.10;92.70;;;;;;5051952;28;20237;-68
2022/02/04 09:00:23;;;;;;;21.43;14.40;;;8.20;92.30;;;;;;5044109;28;20214;-68
2022/02/04 09:03:01;;;;;;;24.73;15.43;;;8.20;92.40;;;;;;5049685;28;20245;-68
2022/02/04 09:05:39;;;;;;;21.13;15.27;;;8.20;92.50;;;;;;5042909;28;20202;-68
2022/02/04 09:08:17;;;;;;;20.67;14.70;;;8.20;92.40;;;;;;5044176;28;20256;-68
2022/02/04 09:10:47;;;;;;;20.17;14.17;;;8.30;92.30;;;;;;5052367;28;20206;-68
2022/02/04 09:19:22;;;;;;;21.00;14.90;;;8.40;91.80;;;;;;5046118;28;20748;-67
2022/02/04 09:24:13;;;;;;;24.83;14.90;;;8.40;91.90;;;;;;5042061;28;20199;-67
2022/02/04 09:26:41;;;;;;;21.63;14.47;;;8.50;91.80;;;;;;5050260;28;20231;-68
2022/02/04 09:29:08;;;;;;;25.03;15.20;;;8.50;91.80;;;;;;5042898;28;20207;-68
2022/02/04 09:31:37;;;;;;;21.37;14.73;;;8.50;91.80;;;;;;5042781;28;20221;-68
2022/02/04 09:34:06;;;;;;;21.77;13.97;;;8.60;91.70;;;;;;5042835;28;20226;-68
2022/02/04 09:36:34;;;;;;;17.30;14.33;;;8.60;91.70;;;;;;5041032;28;20195;-67
2022/02/04 09:39:01;;;;;;;21.17;14.87;;;8.70;91.70;;;;;;5041181;28;20610;-67
2022/02/04 09:41:28;;;;;;;21.93;14.87;;;8.70;91.50;;;;;;5039721;28;20601;-67
2022/02/04 09:43:56;;;;;;;31.90;15.33;;;8.80;91.50;;;;;;5052299;28;20246;-67
2022/02/04 09:46:23;;;;;;;23.50;15.37;;;8.90;91.50;;;;;;5039310;28;20265;-67
2022/02/04 09:48:55;;;;;;;21.87;14.77;;;8.90;91.40;;;;;;5036141;28;20225;-67
2022/02/04 09:51:32;;;;;;;21.43;14.73;;;9.00;91.30;;;;;;5045901;28;20204;-67
2022/02/04 10:08:21;;;;;;;19.90;14.47;;;9.40;90.70;;;;;;5045449;28;20208;-67
2022/02/04 10:14:07;;;;;;;27.07;15.93;;;9.50;90.20;;;;;;5043049;28;20210;-67
2022/02/04 10:17:04;;;;;;;20.93;15.60;;;9.50;90.20;;;;;;5043334;28;20219;-68
2022/02/04 10:19:29;;;;;;;22.07;15.40;;;9.60;90.20;;;;;;5043841;28;20569;-67
2022/02/04 10:22:00;;;;;;;32.50;18.03;;;9.60;90.20;;;;;;5042423;28;20695;-67
2022/02/04 10:24:29;;;;;;;22.37;15.40;;;9.60;90.00;;;;;;5050427;28;20619;-67
2022/02/04 10:27:13;;;;;;;23.43;17.80;;;9.60;89.40;;;;;;5038554;28;20209;-68
2022/02/04 10:29:43;;;;;;;24.43;16.13;;;9.60;89.30;;;;;;5043437;28;20629;-67
2022/02/04 10:32:10;;;;;;;24.50;14.77;;;9.60;89.50;;;;;;5041476;28;20636;-67
2022/02/04 10:34:39;;;;;;;22.87;16.00;;;9.70;89.60;;;;;;5042897;28;20207;-67
2022/02/04 10:37:23;;;;;;;27.17;15.77;;;9.70;89.20;;;;;;5045803;28;20206;-67
2022/02/04 10:40:22;;;;;;;22.53;15.13;;;9.70;89.00;;;;;;5031585;28;20249;-67
2022/02/04 10:43:14;;;;;;;26.20;15.90;;;9.80;89.10;;;;;;5055898;28;20663;-67
2022/02/04 10:45:59;;;;;;;28.23;16.30;;;9.80;89.20;;;;;;5050689;28;20212;-67
2022/02/04 10:59:35;;;;;;;22.57;15.77;;;10.50;88.80;;;;;;5041633;28;20269;-67
2022/02/04 11:10:16;;;;;;;25.50;16.27;;;10.90;87.70;;;;;;5044971;28;20236;-68
2022/02/04 11:52:42;;;;;;;17.97;14.40;;;11.40;86.20;;;;;;5047833;28;20199;-67
2022/02/04 11:55:09;;;;;;;22.47;15.23;;;11.40;86.20;;;;;;5043524;28;20629;-67
2022/02/04 11:57:40;;;;;;;26.63;15.37;;;11.50;86.60;;;;;;5045072;28;20520;-67
2022/02/04 12:00:16;;;;;;;28.00;15.97;;;11.50;86.40;;;;;;5051615;28;20278;-67
2022/02/04 12:02:51;;;;;;;27.30;14.80;;;11.50;86.00;;;;;;5045232;28;20227;-68
2022/02/04 12:05:23;;;;;;;25.27;15.27;;;11.50;85.30;;;;;;5048798;28;20261;-69
2022/02/04 12:08:09;;;;;;;27.40;14.87;;;11.50;86.60;;;;;;5059232;28;20655;-68
2022/02/04 12:10:48;;;;;;;28.70;15.33;;;11.50;86.40;;;;;;5057427;28;20538;-68
2022/02/04 12:13:17;;;;;;;22.57;14.40;;;11.50;86.40;;;;;;5048382;28;20217;-68
2022/02/04 12:16:07;;;;;;;28.63;16.07;;;11.40;87.00;;;;;;5045669;28;20203;-68
2022/02/04 12:18:37;;;;;;;23.77;14.73;;;11.50;86.90;;;;;;5040159;28;20207;-68
2022/02/04 12:21:05;;;;;;;23.00;15.27;;;11.50;86.70;;;;;;5045351;28;20244;-68
2022/02/04 12:23:32;;;;;;;25.53;14.87;;;11.50;87.10;;;;;;5048302;28;20212;-68
2022/02/04 12:26:04;;;;;;;21.90;13.43;;;11.60;87.20;;;;;;5052967;28;20210;-68
2022/02/04 12:28:43;;;;;;;21.33;13.27;;;11.60;87.30;;;;;;5044929;28;20207;-68
2022/02/04 12:31:17;;;;;;;22.63;13.83;;;11.70;86.20;;;;;;5040765;28;20624;-68
2022/02/04 12:33:58;;;;;;;26.57;14.67;;;11.70;85.50;;;;;;5039248;28;20207;-68
2022/02/04 12:36:32;;;;;;;30.83;16.47;;;11.70;86.20;;;;;;5043750;28;20222;-68
2022/02/04 12:39:04;;;;;;;20.57;14.93;;;11.70;85.50;;;;;;5041667;28;20538;-68
2022/02/04 12:41:43;;;;;;;21.70;14.93;;;11.80;85.10;;;;;;5050679;28;20214;-68
2022/02/04 12:44:16;;;;;;;26.57;14.03;;;11.80;85.40;;;;;;5036591;28;20241;-68
2022/02/04 12:46:48;;;;;;;20.60;13.40;;;11.80;85.80;;;;;;5041264;28;20296;-69
2022/02/04 12:49:21;;;;;;;23.23;14.13;;;11.90;85.50;;;;;;5044333;28;20211;-68
2022/02/04 12:52:28;;;;;;;23.03;15.03;;;12.00;85.50;;;;;;5042485;28;20232;-68
2022/02/04 12:55:46;;;;;;;20.27;12.50;;;12.10;85.20;;;;;;5042315;28;20236;-68
2022/02/04 12:57:54;;;;;;;21.43;12.97;;;12.20;84.30;;;;;;5051156;28;20238;-68
2022/02/04 13:03:19;;;;;;;17.70;12.10;;;12.30;83.00;;;;;;5028420;28;20238;-68
2022/02/04 13:11:15;;;;;;;17.77;12.63;;;12.20;83.50;;;;;;5044363;28;20200;-68
2022/02/04 13:13:51;;;;;;;15.13;12.03;;;12.20;83.40;;;;;;5032150;28;20225;-68
2022/02/04 13:16:31;;;;;;;22.37;13.53;;;12.20;83.80;;;;;;5035089;28;20220;-68
2022/02/04 13:19:01;;;;;;;21.33;15.53;;;12.20;83.50;;;;;;5047457;28;20290;-68
2022/02/04 13:21:30;;;;;;;25.13;14.30;;;12.20;83.40;;;;;;5046372;28;20249;-68
2022/02/04 13:24:07;;;;;;;21.60;14.83;;;12.10;83.10;;;;;;5051093;28;20241;-68
2022/02/04 13:26:35;;;;;;;21.97;15.47;;;12.10;83.10;;;;;;5033793;28;20222;-68
2022/02/04 13:29:05;;;;;;;24.37;13.50;;;12.10;83.30;;;;;;5043335;28;20218;-68
2022/02/04 13:31:36;;;;;;;18.63;13.40;;;12.10;83.40;;;;;;5048778;28;20539;-68
2022/02/04 13:34:27;;;;;;;24.70;14.37;;;12.10;83.10;;;;;;5037814;28;20645;-68
2022/02/04 13:37:01;;;;;;;22.30;15.83;;;12.10;83.20;;;;;;5050768;28;20204;-68
2022/02/04 13:39:51;;;;;;;32.67;20.70;;;12.10;83.40;;;;;;5042097;28;20239;-68
2022/02/04 13:42:37;;;;;;;22.40;14.63;;;12.10;83.00;;;;;;5043029;28;20205;-68
2022/02/04 13:45:25;;;;;;;19.97;10.33;;;12.00;83.20;;;;;;5046447;28;20721;-68
2022/02/04 13:48:02;;;;;;;14.73;9.93;;;12.00;83.30;;;;;;5046164;28;20546;-68
2022/02/04 13:50:45;;;;;;;14.07;8.93;;;12.00;83.30;;;;;;5046238;28;20214;-69
2022/02/04 13:53:32;;;;;;;16.73;9.43;;;12.00;83.20;;;;;;5049689;28;20221;-68
2022/02/04 13:58:51;;;;;;;17.80;10.10;;;12.00;83.50;;;;;;5044611;28;20212;-68
2022/02/04 14:01:26;;;;;;;14.53;10.40;;;12.00;83.10;;;;;;5046765;28;20575;-68
2022/02/04 14:04:00;;;;;;;13.57;9.93;;;12.00;83.20;;;;;;5051888;28;20292;-68
2022/02/04 14:06:30;;;;;;;15.30;8.30;;;12.00;83.30;;;;;;5038042;28;20243;-68
2022/02/04 14:09:11;;;;;;;12.53;8.10;;;12.10;82.60;;;;;;5041903;28;20197;-69
2022/02/04 14:11:42;;;;;;;13.07;8.63;;;12.10;82.10;;;;;;5057722;28;20218;-69
2022/02/04 14:14:12;;;;;;;13.93;7.53;;;12.10;81.60;;;;;;5043476;28;20288;-68
2022/02/04 14:16:41;;;;;;;14.23;8.20;;;12.10;81.60;;;;;;5042662;28;20635;-68
2022/02/04 14:19:09;;;;;;;15.73;8.43;;;12.10;82.00;;;;;;5041292;28;20558;-68
2022/02/04 14:21:36;;;;;;;13.07;8.53;;;12.10;82.30;;;;;;5041631;28;20241;-69
2022/02/04 14:24:10;;;;;;;10.73;7.40;;;12.10;82.10;;;;;;5042631;28;20237;-68
2022/02/04 14:26:43;;;;;;;11.80;7.03;;;12.10;81.30;;;;;;5049231;28;20213;-68
2022/02/04 14:35:00;;;;;;;13.40;9.30;;;12.10;81.30;;;;;;5046973;28;20298;-68
2022/02/04 14:37:47;;;;;;;16.73;9.13;;;12.10;81.30;;;;;;5040868;28;20216;-68
2022/02/04 14:52:22;;;;;;;12.20;8.90;;;12.00;82.40;;;;;;5040247;28;20211;-68
2022/02/04 14:54:26;;;;;;;14.83;10.17;;;12.00;82.40;;;;;;5049830;28;20219;-69
2022/02/04 15:02:38;;;;;;;12.93;8.17;;;12.10;82.70;;;;;;5045430;28;20202;-68
2022/02/04 15:05:10;;;;;;;19.13;9.67;;;12.10;82.80;;;;;;5039886;28;20571;-69
2022/02/04 15:07:39;;;;;;;14.20;9.57;;;12.00;82.70;;;;;;5037525;28;20623;-68
2022/02/04 15:10:14;;;;;;;15.73;9.47;;;12.00;83.00;;;;;;5042307;28;20208;-68
2022/02/04 15:12:43;;;;;;;14.93;7.83;;;12.00;83.00;;;;;;5041485;28;20658;-68
2022/02/04 15:15:10;;;;;;;17.83;10.20;;;12.00;83.00;;;;;;5038013;28;20216;-69
2022/02/04 15:17:38;;;;;;;17.87;9.10;;;11.90;83.30;;;;;;5047579;28;20229;-68
2022/02/04 15:20:05;;;;;;;11.33;7.93;;;11.90;83.30;;;;;;5039696;28;20448;-68
2022/02/04 15:22:32;;;;;;;14.33;9.23;;;11.80;83.40;;;;;;5040060;28;20239;-68
2022/02/04 15:25:09;;;;;;;15.63;8.93;;;11.90;83.60;;;;;;5033021;28;20230;-69
2022/02/04 15:27:39;;;;;;;15.43;8.30;;;11.80;83.80;;;;;;5039874;28;20213;-68
2022/02/04 15:30:08;;;;;;;14.73;8.70;;;11.80;83.70;;;;;;5039854;28;20241;-68
2022/02/04 15:32:35;;;;;;;14.97;8.13;;;11.80;83.90;;;;;;5042091;28;20192;-68
2022/02/04 15:35:04;;;;;;;15.47;8.73;;;11.80;83.90;;;;;;5042404;28;20200;-68
2022/02/04 15:37:31;;;;;;;18.67;8.93;;;11.70;83.90;;;;;;5039382;28;20207;-68
2022/02/04 15:39:59;;;;;;;17.07;9.33;;;11.70;84.10;;;;;;5045729;28;20654;-68
2022/02/04 15:42:27;;;;;;;16.17;9.33;;;11.70;84.30;;;;;;5042994;28;20632;-68
2022/02/04 15:53:36;;;;;;;18.50;11.23;;;11.60;84.40;;;;;;5043893;28;20210;-69
2022/02/04 15:59:55;;;;;;;15.73;8.73;;;11.50;84.70;;;;;;5057151;28;20218;-68
2022/02/04 16:02:16;;;;;;;17.27;11.00;;;11.50;84.90;;;;;;5038121;28;20247;-69
2022/02/04 16:04:46;;;;;;;14.80;8.90;;;11.40;84.90;;;;;;5052056;28;20554;-69
2022/02/04 16:07:18;;;;;;;12.87;8.53;;;11.40;85.20;;;;;;5034495;28;20208;-69
2022/02/04 16:09:51;;;;;;;18.60;10.17;;;11.40;85.20;;;;;;5037051;28;20208;-69
2022/02/04 16:12:23;;;;;;;12.63;10.00;;;11.30;85.30;;;;;;5038120;28;20205;-68
2022/02/04 16:14:59;;;;;;;21.77;10.10;;;11.30;85.40;;;;;;5040734;28;20221;-69
2022/02/04 16:23:03;;;;;;;24.77;10.57;;;11.20;85.80;;;;;;5043708;28;20240;-68
2022/02/04 16:25:58;;;;;;;18.10;12.80;;;11.20;85.90;;;;;;5048216;28;20226;-68
2022/02/04 16:28:38;;;;;;;18.87;11.27;;;11.20;85.90;;;;;;5047480;28;20555;-68
2022/02/04 16:31:06;;;;;;;18.70;12.00;;;11.20;86.10;;;;;;5047248;28;20211;-68
2022/02/04 16:33:34;;;;;;;19.37;10.40;;;11.10;86.10;;;;;;5045191;28;20225;-68
2022/02/04 16:36:08;;;;;;;19.87;11.13;;;11.10;86.30;;;;;;5047536;28;20196;-68
2022/02/04 16:38:35;;;;;;;18.97;12.67;;;11.00;86.40;;;;;;5054079;28;20217;-69
2022/02/04 16:41:07;;;;;;;21.83;12.30;;;11.10;86.50;;;;;;5046003;28;20292;-69
2022/02/04 16:43:35;;;;;;;21.23;12.53;;;11.00;86.50;;;;;;5045636;28;20659;-69
2022/02/04 16:46:06;;;;;;;20.40;11.80;;;11.00;86.50;;;;;;5046110;28;20290;-68
2022/02/04 16:48:37;;;;;;;20.80;12.40;;;11.00;86.60;;;;;;5044920;28;20219;-68
2022/02/04 16:51:05;;;;;;;22.27;13.07;;;11.00;86.70;;;;;;5045770;28;20217;-68
2022/02/04 16:53:35;;;;;;;25.10;12.40;;;11.00;86.70;;;;;;5042000;28;20213;-68
2022/02/04 16:56:03;;;;;;;22.73;13.87;;;10.90;86.70;;;;;;5044163;28;20209;-68
2022/02/04 16:58:31;;;;;;;22.23;13.23;;;10.90;86.80;;;;;;5047146;28;20295;-69
2022/02/04 17:00:58;;;;;;;23.47;12.80;;;10.90;86.90;;;;;;5043415;28;20211;-69
2022/02/04 17:03:26;;;;;;;23.97;12.13;;;10.90;86.90;;;;;;5051321;28;20204;-69
2022/02/04 17:06:00;;;;;;;17.93;10.70;;;10.90;86.90;;;;;;5042906;28;20192;-69
2022/02/04 17:08:46;;;;;;;19.27;11.53;;;10.90;87.00;;;;;;5044976;28;20219;-69
2022/02/04 17:11:30;;;;;;;20.07;10.60;;;10.90;87.00;;;;;;5051624;28;20282;-69
2022/02/04 17:13:57;;;;;;;16.97;10.53;;;10.80;87.00;;;;;;5046139;28;20206;-69
2022/02/04 17:16:24;;;;;;;26.00;11.67;;;10.80;87.10;;;;;;5043193;28;20203;-69
2022/02/04 17:18:51;;;;;;;21.23;12.03;;;10.70;87.40;;;;;;5041455;28;20206;-69
2022/02/04 17:21:23;;;;;;;16.67;11.23;;;10.70;87.50;;;;;;5052664;28;20239;-69
2022/02/04 17:23:52;;;;;;;18.60;10.77;;;10.70;87.60;;;;;;5052533;28;20230;-68
2022/02/04 17:26:22;;;;;;;19.07;12.07;;;10.60;87.80;;;;;;5027424;28;20637;-68
2022/02/04 17:28:51;;;;;;;22.47;13.07;;;10.60;88.40;;;;;;5044420;28;20603;-68
2022/02/04 17:31:18;;;;;;;20.67;12.67;;;10.50;87.80;;;;;;5045253;28;20213;-69
2022/02/04 17:33:45;;;;;;;19.40;11.97;;;10.50;87.90;;;;;;5038067;28;20216;-69
2022/02/04 17:36:13;;;;;;;20.47;12.53;;;10.50;88.10;;;;;;5042131;28;20195;-69
2022/02/04 17:38:42;;;;;;;24.77;12.13;;;10.40;88.10;;;;;;5046475;28;20247;-69
2022/02/04 17:41:10;;;;;;;21.73;12.87;;;10.40;88.20;;;;;;5049844;28;20220;-69
2022/02/04 17:43:37;;;;;;;21.67;12.17;;;10.40;88.30;;;;;;5051076;28;20299;-69
2022/02/04 17:46:04;;;;;;;18.57;12.87;;;10.40;88.40;;;;;;5042030;28;20201;-68
2022/02/04 17:48:44;;;;;;;18.03;11.77;;;10.30;88.40;;;;;;5043576;28;20203;-69
2022/02/04 17:53:54;;;;;;;17.83;12.50;;;10.30;88.70;;;;;;5043851;28;20204;-69
2022/02/04 17:59:30;;;;;;;20.27;12.57;;;10.30;88.90;;;;;;5049876;28;20194;-68
2022/02/04 18:07:24;;;;;;;20.17;12.77;;;10.20;89.00;;;;;;5043119;28;20651;-68
2022/02/04 18:09:52;;;;;;;28.37;13.87;;;10.20;89.00;;;;;;5051261;28;20211;-68
2022/02/04 18:12:24;;;;;;;23.63;13.73;;;10.10;89.10;;;;;;5041982;28;20723;-67
2022/02/04 18:14:52;;;;;;;19.53;13.03;;;10.10;89.20;;;;;;5042636;28;20548;-66
2022/02/04 18:17:20;;;;;;;17.73;12.40;;;10.00;89.40;;;;;;5048531;28;20663;-66
2022/02/04 18:19:47;;;;;;;14.67;11.73;;;10.00;89.40;;;;;;5045723;28;20207;-66
2022/02/04 18:22:15;;;;;;;22.50;12.67;;;9.90;89.30;;;;;;5041450;28;20243;-66
2022/02/04 18:24:42;;;;;;;17.57;11.83;;;9.90;89.20;;;;;;5046195;28;20223;-69
2022/02/04 18:27:15;;;;;;;22.40;13.37;;;9.80;89.20;;;;;;5050013;28;20295;-69
2022/02/04 18:29:47;;;;;;;18.50;12.73;;;9.80;89.40;;;;;;5052743;28;20210;-68
2022/02/04 18:32:14;;;;;;;21.80;13.40;;;9.70;89.50;;;;;;5052952;28;20224;-69
2022/02/04 18:34:41;;;;;;;23.33;13.50;;;9.70;89.60;;;;;;5037842;28;20632;-68
2022/02/04 18:37:08;;;;;;;23.83;12.80;;;9.70;89.80;;;;;;5038304;28;20214;-68
2022/02/04 18:42:41;;;;;;;20.23;13.53;;;9.60;89.90;;;;;;5040661;28;20219;-68
2022/02/04 18:45:18;;;;;;;21.30;13.37;;;9.60;89.90;;;;;;5043638;28;20225;-68
2022/02/04 18:50:43;;;;;;;25.90;14.50;;;9.60;89.80;;;;;;5040209;28;20199;-69
2022/02/04 18:58:37;;;;;;;27.13;16.07;;;9.50;90.30;;;;;;5052893;28;20538;-68
2022/02/04 19:01:04;;;;;;;23.20;16.23;;;9.40;90.40;;;;;;5059936;28;20284;-68
2022/02/04 19:03:41;;;;;;;21.30;13.93;;;9.50;90.60;;;;;;5044819;28;20204;-68
2022/02/04 19:06:26;;;;;;;20.83;14.27;;;9.50;90.60;;;;;;5036724;28;20673;-69
2022/02/04 19:08:57;;;;;;;24.57;12.87;;;9.50;90.60;;;;;;5041837;28;20240;-68
2022/02/04 19:11:32;;;;;;;21.03;14.60;;;9.50;90.60;;;;;;5040269;28;20644;-68
2022/02/04 19:14:11;;;;;;;22.93;14.80;;;9.40;90.60;;;;;;5049655;28;20208;-68
2022/02/04 19:16:57;;;;;;;21.07;13.73;;;9.40;90.60;;;;;;5042211;28;20207;-69